NKS463 KDTW-KLGA
Flight info
| Callsign | NKS463 |
|---|---|
| Flight time | 1h 13m |
| Altitude | 37000 |
| Route | PAVYL3 ESSBE SPYDY Q186 WEVEL ETG MIP4 |
| Aircraft | A320/M-SDE3FGHIRWY/LB1 |
Departure
| Time | 2026-05-04 19:15 |
|---|---|
| Airport | Detroit Metropolitan Wayne County Airport (KDTW) |
Arrival
| Time | 2026-05-04 20:28 |
|---|---|
| Airport | LaGuardia Airport (KLGA) |
| Time | Latitude | Longitude | Altitude | Speed | Heading |
|---|---|---|---|---|---|
| 2026-05-04 18:46 | 42.22224 | -83.35207 | 646 ft | 0 kts | 76° |
| 2026-05-04 19:03 | 42.22222 | -83.35223 | 674 ft | 4 kts | 76° |
| 2026-05-04 19:03 | 42.22216 | -83.35252 | 648 ft | 2 kts | 76° |
| 2026-05-04 19:04 | 42.22211 | -83.35280 | 647 ft | 2 kts | 76° |
| 2026-05-04 19:04 | 42.22207 | -83.35304 | 646 ft | 0 kts | 76° |
| 2026-05-04 19:07 | 42.22208 | -83.35299 | 646 ft | 1 kts | 79° |
| 2026-05-04 19:07 | 42.22204 | -83.35295 | 646 ft | 1 kts | 124° |
| 2026-05-04 19:07 | 42.22172 | -83.35284 | 646 ft | 10 kts | 161° |
| 2026-05-04 19:08 | 42.22095 | -83.35228 | 646 ft | 14 kts | 150° |
| 2026-05-04 19:08 | 42.22019 | -83.35256 | 646 ft | 12 kts | 205° |
| 2026-05-04 19:08 | 42.21939 | -83.35308 | 647 ft | 13 kts | 194° |
| 2026-05-04 19:08 | 42.21852 | -83.35331 | 646 ft | 13 kts | 180° |
| 2026-05-04 19:09 | 42.21825 | -83.35222 | 646 ft | 15 kts | 87° |
| 2026-05-04 19:09 | 42.21829 | -83.35063 | 646 ft | 18 kts | 89° |
| 2026-05-04 19:09 | 42.21831 | -83.34886 | 646 ft | 20 kts | 89° |
| 2026-05-04 19:09 | 42.21834 | -83.34696 | 646 ft | 21 kts | 89° |
| 2026-05-04 19:10 | 42.21836 | -83.34557 | 647 ft | 7 kts | 86° |
| 2026-05-04 19:10 | 42.21877 | -83.34487 | 648 ft | 13 kts | 33° |
| 2026-05-04 19:10 | 42.21975 | -83.34414 | 646 ft | 18 kts | 28° |
| 2026-05-04 19:10 | 42.22090 | -83.34330 | 648 ft | 20 kts | 28° |
| 2026-05-04 19:11 | 42.22214 | -83.34236 | 646 ft | 21 kts | 29° |
| 2026-05-04 19:11 | 42.22346 | -83.34140 | 646 ft | 22 kts | 28° |
| 2026-05-04 19:11 | 42.22482 | -83.34039 | 646 ft | 23 kts | 29° |
| 2026-05-04 19:11 | 42.22627 | -83.33933 | 646 ft | 24 kts | 28° |
| 2026-05-04 19:12 | 42.22751 | -83.33831 | 647 ft | 10 kts | 59° |
| 2026-05-04 19:12 | 42.22753 | -83.33810 | 646 ft | 0 kts | 88° |
| 2026-05-04 19:12 | 42.22750 | -83.33784 | 646 ft | 7 kts | 105° |
| 2026-05-04 19:13 | 42.22713 | -83.33715 | 647 ft | 11 kts | 161° |
| 2026-05-04 19:13 | 42.22677 | -83.33727 | 647 ft | 0 kts | 208° |
| 2026-05-04 19:14 | 42.22575 | -83.33802 | 647 ft | 48 kts | 209° |
| 2026-05-04 19:14 | 42.22109 | -83.34149 | 646 ft | 103 kts | 209° |
| 2026-05-04 19:14 | 42.21365 | -83.34689 | 782 ft | 131 kts | 210° |
| 2026-05-04 19:15 | 42.20576 | -83.35248 | 1315 ft | 131 kts | 208° |
| 2026-05-04 19:15 | 42.19750 | -83.35845 | 1777 ft | 137 kts | 208° |
| 2026-05-04 19:15 | 42.18860 | -83.36321 | 2298 ft | 142 kts | 189° |
| 2026-05-04 19:15 | 42.17788 | -83.36234 | 2558 ft | 165 kts | 180° |
| 2026-05-04 19:16 | 42.16594 | -83.36081 | 2930 ft | 180 kts | 180° |
| 2026-05-04 19:16 | 42.15297 | -83.35945 | 3244 ft | 202 kts | 181° |
| 2026-05-04 19:16 | 42.13780 | -83.35860 | 3544 ft | 228 kts | 182° |
| 2026-05-04 19:16 | 42.12108 | -83.35820 | 3911 ft | 253 kts | 183° |
| 2026-05-04 19:17 | 42.10353 | -83.35786 | 4735 ft | 254 kts | 183° |
| 2026-05-04 19:17 | 42.08583 | -83.35717 | 5678 ft | 255 kts | 184° |
| 2026-05-04 19:17 | 42.06785 | -83.35611 | 6476 ft | 264 kts | 180° |
| 2026-05-04 19:17 | 42.04993 | -83.34795 | 7248 ft | 283 kts | 154° |
| 2026-05-04 19:18 | 42.03570 | -83.32871 | 8002 ft | 303 kts | 125° |
| 2026-05-04 19:18 | 42.02876 | -83.30131 | 8755 ft | 315 kts | 104° |
| 2026-05-04 19:18 | 42.02460 | -83.27216 | 9579 ft | 320 kts | 103° |
| 2026-05-04 19:18 | 42.02050 | -83.24251 | 10275 ft | 327 kts | 103° |
| 2026-05-04 19:19 | 42.01650 | -83.21134 | 10468 ft | 351 kts | 99° |
| 2026-05-04 19:19 | 42.01562 | -83.17742 | 10606 ft | 376 kts | 88° |
| 2026-05-04 19:19 | 42.01929 | -83.14171 | 10858 ft | 392 kts | 79° |
| 2026-05-04 19:19 | 42.02473 | -83.10539 | 11444 ft | 397 kts | 77° |
| 2026-05-04 19:20 | 42.03274 | -83.06958 | 12055 ft | 402 kts | 71° |
| 2026-05-04 19:20 | 42.04169 | -83.03377 | 12677 ft | 406 kts | 71° |
| 2026-05-04 19:20 | 42.05077 | -82.99770 | 13298 ft | 409 kts | 71° |
| 2026-05-04 19:20 | 42.05996 | -82.96131 | 13855 ft | 413 kts | 71° |
| 2026-05-04 19:21 | 42.06924 | -82.92455 | 14401 ft | 416 kts | 71° |
| 2026-05-04 19:21 | 42.07837 | -82.88841 | 14926 ft | 419 kts | 70° |
| 2026-05-04 19:21 | 42.08802 | -82.85022 | 15483 ft | 422 kts | 70° |
| 2026-05-04 19:21 | 42.09732 | -82.81323 | 16017 ft | 424 kts | 70° |
| 2026-05-04 19:22 | 42.10683 | -82.77537 | 16560 ft | 427 kts | 70° |
| 2026-05-04 19:22 | 42.11635 | -82.73738 | 17120 ft | 430 kts | 70° |
| 2026-05-04 19:22 | 42.12595 | -82.69900 | 17676 ft | 432 kts | 70° |
| 2026-05-04 19:22 | 42.13552 | -82.66040 | 18193 ft | 435 kts | 72° |
| 2026-05-04 19:23 | 42.14211 | -82.62036 | 18660 ft | 439 kts | 82° |
| 2026-05-04 19:23 | 42.14381 | -82.57914 | 19140 ft | 442 kts | 91° |
| 2026-05-04 19:23 | 42.14348 | -82.53813 | 19617 ft | 445 kts | 91° |
| 2026-05-04 19:23 | 42.14320 | -82.49632 | 20076 ft | 448 kts | 90° |
| 2026-05-04 19:24 | 42.14301 | -82.46786 | 20368 ft | 450 kts | 91° |
| 2026-05-04 19:24 | 42.13835 | -82.41212 | 20938 ft | 454 kts | 100° |
| 2026-05-04 19:24 | 42.13309 | -82.37009 | 21378 ft | 456 kts | 100° |
| 2026-05-04 19:24 | 42.12955 | -82.34201 | 21652 ft | 459 kts | 100° |
| 2026-05-04 19:25 | 42.12240 | -82.28519 | 22184 ft | 463 kts | 100° |
| 2026-05-04 19:25 | 42.11883 | -82.25686 | 22453 ft | 464 kts | 100° |
| 2026-05-04 19:25 | 42.11340 | -82.21367 | 22855 ft | 467 kts | 100° |
| 2026-05-04 19:25 | 42.10795 | -82.17040 | 23248 ft | 470 kts | 100° |
| 2026-05-04 19:26 | 42.10244 | -82.12689 | 23589 ft | 473 kts | 100° |
| 2026-05-04 19:26 | 42.09688 | -82.08314 | 23936 ft | 475 kts | 100° |
| 2026-05-04 19:26 | 42.09131 | -82.03917 | 24281 ft | 477 kts | 99° |
| 2026-05-04 19:26 | 42.08573 | -81.99539 | 24621 ft | 478 kts | 99° |
| 2026-05-04 19:27 | 42.08006 | -81.95115 | 24965 ft | 480 kts | 100° |
| 2026-05-04 19:27 | 42.07421 | -81.90683 | 25308 ft | 482 kts | 102° |
| 2026-05-04 19:27 | 42.06458 | -81.86353 | 25646 ft | 483 kts | 113° |
| 2026-05-04 19:27 | 42.04968 | -81.82316 | 25986 ft | 483 kts | 123° |
| 2026-05-04 19:28 | 42.02993 | -81.78662 | 26324 ft | 482 kts | 134° |
| 2026-05-04 19:28 | 42.00603 | -81.75500 | 26649 ft | 480 kts | 143° |
| 2026-05-04 19:28 | 41.97891 | -81.72939 | 27011 ft | 476 kts | 154° |
| 2026-05-04 19:28 | 41.95030 | -81.70828 | 27459 ft | 474 kts | 155° |
| 2026-05-04 19:29 | 41.92134 | -81.68702 | 27914 ft | 473 kts | 155° |
| 2026-05-04 19:29 | 41.89252 | -81.66579 | 28359 ft | 472 kts | 154° |
| 2026-05-04 19:29 | 41.86374 | -81.64458 | 28846 ft | 471 kts | 154° |
| 2026-05-04 19:29 | 41.83496 | -81.62338 | 29335 ft | 470 kts | 154° |
| 2026-05-04 19:30 | 41.80641 | -81.60238 | 29796 ft | 469 kts | 154° |
| 2026-05-04 19:30 | 41.77780 | -81.58137 | 30195 ft | 468 kts | 154° |
| 2026-05-04 19:30 | 41.74929 | -81.56045 | 30586 ft | 468 kts | 154° |
| 2026-05-04 19:30 | 41.72068 | -81.53948 | 30956 ft | 468 kts | 154° |
| 2026-05-04 19:31 | 41.69214 | -81.51861 | 31351 ft | 468 kts | 154° |
| 2026-05-04 19:31 | 41.66356 | -81.49778 | 31717 ft | 467 kts | 154° |
| 2026-05-04 19:31 | 41.63530 | -81.47720 | 32133 ft | 467 kts | 154° |
| 2026-05-04 19:31 | 41.60735 | -81.45434 | 32533 ft | 469 kts | 145° |
| 2026-05-04 19:32 | 41.58272 | -81.42548 | 32895 ft | 472 kts | 134° |
| 2026-05-04 19:32 | 41.56242 | -81.39099 | 33267 ft | 474 kts | 122° |
| 2026-05-04 19:32 | 41.54716 | -81.35209 | 33640 ft | 473 kts | 111° |
| 2026-05-04 19:32 | 41.53748 | -81.31078 | 33955 ft | 472 kts | 100° |
| 2026-05-04 19:33 | 41.53266 | -81.26700 | 34235 ft | 471 kts | 95° |
| 2026-05-04 19:33 | 41.52881 | -81.22420 | 34529 ft | 471 kts | 95° |
| 2026-05-04 19:33 | 41.52487 | -81.18081 | 34820 ft | 471 kts | 95° |
| 2026-05-04 19:33 | 41.52088 | -81.13746 | 35090 ft | 471 kts | 95° |
| 2026-05-04 19:34 | 41.51684 | -81.09401 | 35355 ft | 472 kts | 95° |
| 2026-05-04 19:34 | 41.51276 | -81.05049 | 35623 ft | 472 kts | 96° |
| 2026-05-04 19:34 | 41.50865 | -81.00692 | 35885 ft | 473 kts | 96° |
| 2026-05-04 19:34 | 41.50453 | -80.96347 | 36141 ft | 473 kts | 96° |
| 2026-05-04 19:35 | 41.50039 | -80.91990 | 36380 ft | 473 kts | 96° |
| 2026-05-04 19:35 | 41.49625 | -80.87631 | 36631 ft | 473 kts | 96° |
| 2026-05-04 19:35 | 41.49213 | -80.83271 | 36767 ft | 475 kts | 96° |
| 2026-05-04 19:36 | 41.48378 | -80.74430 | 36811 ft | 484 kts | 96° |
| 2026-05-04 19:36 | 41.47512 | -80.65485 | 36813 ft | 486 kts | 96° |
| 2026-05-04 19:37 | 41.46648 | -80.56688 | 36801 ft | 486 kts | 96° |
| 2026-05-04 19:37 | 41.45770 | -80.47739 | 36801 ft | 487 kts | 96° |
| 2026-05-04 19:38 | 41.44889 | -80.38781 | 36817 ft | 487 kts | 96° |
| 2026-05-04 19:38 | 41.44004 | -80.29838 | 36837 ft | 487 kts | 96° |
| 2026-05-04 19:39 | 41.43098 | -80.20876 | 36845 ft | 488 kts | 96° |
| 2026-05-04 19:39 | 41.42181 | -80.11928 | 36861 ft | 488 kts | 96° |
| 2026-05-04 19:40 | 41.41294 | -80.02960 | 36866 ft | 488 kts | 96° |
| 2026-05-04 19:40 | 41.40451 | -79.94050 | 36866 ft | 488 kts | 96° |
| 2026-05-04 19:41 | 41.39584 | -79.85076 | 36862 ft | 488 kts | 96° |
| 2026-05-04 19:41 | 41.38702 | -79.76112 | 36867 ft | 488 kts | 96° |
| 2026-05-04 19:42 | 41.37805 | -79.67143 | 36851 ft | 488 kts | 96° |
| 2026-05-04 19:42 | 41.36907 | -79.58194 | 36851 ft | 488 kts | 96° |
| 2026-05-04 19:43 | 41.35998 | -79.49238 | 36853 ft | 488 kts | 96° |
| 2026-05-04 19:43 | 41.35094 | -79.40282 | 36861 ft | 488 kts | 96° |
| 2026-05-04 19:44 | 41.34183 | -79.31340 | 36862 ft | 488 kts | 96° |
| 2026-05-04 19:44 | 41.33251 | -79.22396 | 36864 ft | 487 kts | 96° |
| 2026-05-04 19:45 | 41.32317 | -79.13523 | 36864 ft | 487 kts | 96° |
| 2026-05-04 19:45 | 41.31382 | -79.04593 | 36869 ft | 487 kts | 96° |
| 2026-05-04 19:46 | 41.30446 | -78.95674 | 36873 ft | 487 kts | 96° |
| 2026-05-04 19:46 | 41.29491 | -78.86751 | 36872 ft | 487 kts | 96° |
| 2026-05-04 19:47 | 41.28533 | -78.77835 | 36873 ft | 487 kts | 96° |
| 2026-05-04 19:47 | 41.27570 | -78.68918 | 36866 ft | 487 kts | 96° |
| 2026-05-04 19:48 | 41.26601 | -78.60016 | 36871 ft | 487 kts | 96° |
| 2026-05-04 19:48 | 41.25620 | -78.51107 | 36868 ft | 487 kts | 96° |
| 2026-05-04 19:49 | 41.24631 | -78.42207 | 36868 ft | 487 kts | 96° |
| 2026-05-04 19:49 | 41.23650 | -78.33357 | 36879 ft | 487 kts | 96° |
| 2026-05-04 19:50 | 41.22653 | -78.24466 | 36875 ft | 487 kts | 96° |
| 2026-05-04 19:50 | 41.21647 | -78.15568 | 36872 ft | 487 kts | 96° |
| 2026-05-04 19:51 | 41.20597 | -78.06693 | 36866 ft | 487 kts | 97° |
| 2026-05-04 19:51 | 41.19481 | -77.97819 | 36861 ft | 487 kts | 97° |
| 2026-05-04 19:52 | 41.18353 | -77.88956 | 36872 ft | 487 kts | 97° |
| 2026-05-04 19:52 | 41.17240 | -77.80083 | 36860 ft | 487 kts | 97° |
| 2026-05-04 19:53 | 41.16123 | -77.71213 | 36853 ft | 487 kts | 97° |
| 2026-05-04 19:53 | 41.15001 | -77.62401 | 36853 ft | 487 kts | 97° |
| 2026-05-04 19:54 | 41.13863 | -77.53527 | 36854 ft | 487 kts | 97° |
| 2026-05-04 19:54 | 41.12716 | -77.44666 | 36855 ft | 487 kts | 97° |
| 2026-05-04 19:55 | 41.11564 | -77.35796 | 36860 ft | 487 kts | 97° |
| 2026-05-04 19:55 | 41.10421 | -77.27000 | 36861 ft | 488 kts | 97° |
| 2026-05-04 19:56 | 41.09260 | -77.18128 | 36868 ft | 488 kts | 97° |
| 2026-05-04 19:56 | 41.08094 | -77.09274 | 36870 ft | 487 kts | 97° |
| 2026-05-04 19:57 | 41.06922 | -77.00455 | 36872 ft | 487 kts | 97° |
| 2026-05-04 19:57 | 41.06331 | -76.96048 | 36540 ft | 485 kts | 97° |
| 2026-05-04 19:57 | 41.05744 | -76.91659 | 35978 ft | 484 kts | 97° |
| 2026-05-04 19:57 | 41.05158 | -76.87270 | 35438 ft | 483 kts | 97° |
| 2026-05-04 19:58 | 41.04576 | -76.82941 | 34925 ft | 481 kts | 97° |
| 2026-05-04 19:58 | 41.03986 | -76.78589 | 34404 ft | 478 kts | 97° |
| 2026-05-04 19:58 | 41.03396 | -76.74275 | 33431 ft | 475 kts | 97° |
| 2026-05-04 19:58 | 41.02807 | -76.69966 | 32164 ft | 476 kts | 97° |
| 2026-05-04 19:59 | 41.02124 | -76.65667 | 30792 ft | 482 kts | 104° |
| 2026-05-04 19:59 | 41.01118 | -76.61404 | 29251 ft | 487 kts | 106° |
| 2026-05-04 19:59 | 41.00086 | -76.57109 | 27509 ft | 492 kts | 107° |
| 2026-05-04 19:59 | 40.99041 | -76.52764 | 25995 ft | 495 kts | 107° |
| 2026-05-04 20:00 | 40.98002 | -76.48453 | 24818 ft | 487 kts | 107° |
| 2026-05-04 20:00 | 40.96978 | -76.44206 | 23717 ft | 480 kts | 107° |
| 2026-05-04 20:00 | 40.95968 | -76.40017 | 22500 ft | 473 kts | 107° |
| 2026-05-04 20:00 | 40.94987 | -76.35956 | 21333 ft | 465 kts | 107° |
| 2026-05-04 20:01 | 40.94010 | -76.31913 | 20217 ft | 457 kts | 108° |
| 2026-05-04 20:01 | 40.93049 | -76.27946 | 19162 ft | 449 kts | 108° |
| 2026-05-04 20:01 | 40.92100 | -76.24040 | 18404 ft | 444 kts | 108° |
| 2026-05-04 20:01 | 40.91143 | -76.20100 | 17936 ft | 442 kts | 108° |
| 2026-05-04 20:02 | 40.90203 | -76.16233 | 17913 ft | 441 kts | 108° |
| 2026-05-04 20:02 | 40.89272 | -76.12407 | 17928 ft | 443 kts | 108° |
| 2026-05-04 20:02 | 40.88327 | -76.08542 | 17917 ft | 442 kts | 108° |
| 2026-05-04 20:02 | 40.87383 | -76.04701 | 17426 ft | 437 kts | 108° |
| 2026-05-04 20:03 | 40.86447 | -76.00891 | 16835 ft | 433 kts | 108° |
| 2026-05-04 20:03 | 40.85523 | -75.97133 | 16247 ft | 429 kts | 109° |
| 2026-05-04 20:03 | 40.84603 | -75.93403 | 15654 ft | 425 kts | 109° |
| 2026-05-04 20:03 | 40.83691 | -75.89709 | 15099 ft | 421 kts | 109° |
| 2026-05-04 20:04 | 40.82787 | -75.86053 | 14536 ft | 417 kts | 109° |
| 2026-05-04 20:04 | 40.81889 | -75.82432 | 13978 ft | 413 kts | 109° |
| 2026-05-04 20:04 | 40.80995 | -75.78842 | 13379 ft | 409 kts | 109° |
| 2026-05-04 20:04 | 40.80112 | -75.75298 | 13042 ft | 406 kts | 109° |
| 2026-05-04 20:05 | 40.79232 | -75.71765 | 12982 ft | 405 kts | 109° |
| 2026-05-04 20:05 | 40.78351 | -75.68222 | 13000 ft | 406 kts | 109° |
| 2026-05-04 20:05 | 40.77470 | -75.64678 | 12989 ft | 407 kts | 109° |
| 2026-05-04 20:05 | 40.76602 | -75.61184 | 12987 ft | 406 kts | 109° |
| 2026-05-04 20:06 | 40.75721 | -75.57643 | 12983 ft | 406 kts | 109° |
| 2026-05-04 20:06 | 40.74835 | -75.54095 | 12985 ft | 407 kts | 109° |
| 2026-05-04 20:06 | 40.73947 | -75.50556 | 12980 ft | 406 kts | 109° |
| 2026-05-04 20:06 | 40.73060 | -75.47024 | 12979 ft | 407 kts | 109° |
| 2026-05-04 20:07 | 40.72200 | -75.43474 | 12981 ft | 407 kts | 107° |
| 2026-05-04 20:07 | 40.71430 | -75.39880 | 12978 ft | 407 kts | 105° |
| 2026-05-04 20:07 | 40.70721 | -75.36261 | 12982 ft | 407 kts | 104° |
| 2026-05-04 20:07 | 40.70041 | -75.32642 | 12979 ft | 407 kts | 104° |
| 2026-05-04 20:08 | 40.69361 | -75.29018 | 12983 ft | 407 kts | 104° |
| 2026-05-04 20:08 | 40.68670 | -75.25404 | 12981 ft | 407 kts | 105° |
| 2026-05-04 20:08 | 40.67957 | -75.21793 | 12988 ft | 407 kts | 107° |
| 2026-05-04 20:08 | 40.67015 | -75.18287 | 12987 ft | 406 kts | 115° |
| 2026-05-04 20:09 | 40.65768 | -75.14972 | 12898 ft | 402 kts | 121° |
| 2026-05-04 20:09 | 40.64268 | -75.11888 | 12268 ft | 397 kts | 128° |
| 2026-05-04 20:09 | 40.62527 | -75.09105 | 11656 ft | 391 kts | 135° |
| 2026-05-04 20:09 | 40.60706 | -75.06539 | 11103 ft | 386 kts | 135° |
| 2026-05-04 20:10 | 40.58926 | -75.03913 | 10548 ft | 383 kts | 131° |
| 2026-05-04 20:10 | 40.57382 | -75.01073 | 10106 ft | 380 kts | 124° |
| 2026-05-04 20:10 | 40.56097 | -74.98042 | 9955 ft | 375 kts | 117° |
| 2026-05-04 20:10 | 40.55095 | -74.94968 | 9981 ft | 355 kts | 112° |
| 2026-05-04 20:11 | 40.54218 | -74.92021 | 9978 ft | 339 kts | 112° |
| 2026-05-04 20:11 | 40.53377 | -74.89204 | 9978 ft | 323 kts | 113° |
| 2026-05-04 20:11 | 40.52569 | -74.86513 | 9976 ft | 313 kts | 113° |
| 2026-05-04 20:11 | 40.51768 | -74.83859 | 9977 ft | 312 kts | 113° |
| 2026-05-04 20:12 | 40.50968 | -74.81206 | 9979 ft | 312 kts | 113° |
| 2026-05-04 20:12 | 40.50167 | -74.78554 | 9977 ft | 312 kts | 113° |
| 2026-05-04 20:12 | 40.49370 | -74.75910 | 9977 ft | 312 kts | 113° |
| 2026-05-04 20:12 | 40.48578 | -74.73279 | 9978 ft | 312 kts | 113° |
| 2026-05-04 20:13 | 40.47776 | -74.70609 | 9978 ft | 312 kts | 113° |
| 2026-05-04 20:13 | 40.46977 | -74.67954 | 9978 ft | 312 kts | 113° |
| 2026-05-04 20:13 | 40.46191 | -74.65342 | 9979 ft | 312 kts | 113° |
| 2026-05-04 20:13 | 40.45392 | -74.62692 | 9982 ft | 311 kts | 113° |
| 2026-05-04 20:14 | 40.44652 | -74.60029 | 9982 ft | 312 kts | 108° |
| 2026-05-04 20:14 | 40.44156 | -74.57248 | 9982 ft | 313 kts | 99° |
| 2026-05-04 20:14 | 40.43940 | -74.54403 | 9984 ft | 313 kts | 91° |
| 2026-05-04 20:14 | 40.44010 | -74.51551 | 9986 ft | 314 kts | 83° |
| 2026-05-04 20:15 | 40.44360 | -74.48726 | 9989 ft | 313 kts | 75° |
| 2026-05-04 20:15 | 40.44974 | -74.45999 | 10003 ft | 312 kts | 68° |
| 2026-05-04 20:15 | 40.45706 | -74.43318 | 10004 ft | 312 kts | 69° |
| 2026-05-04 20:15 | 40.46433 | -74.40629 | 10001 ft | 312 kts | 69° |
| 2026-05-04 20:16 | 40.47155 | -74.37945 | 9997 ft | 311 kts | 69° |
| 2026-05-04 20:16 | 40.47866 | -74.35289 | 9999 ft | 312 kts | 69° |
| 2026-05-04 20:16 | 40.48350 | -74.33476 | 9999 ft | 311 kts | 69° |
| 2026-05-04 20:16 | 40.49301 | -74.29918 | 9995 ft | 311 kts | 69° |
| 2026-05-04 20:17 | 40.50016 | -74.27244 | 9992 ft | 311 kts | 69° |
| 2026-05-04 20:17 | 40.50735 | -74.24560 | 9992 ft | 311 kts | 69° |
| 2026-05-04 20:17 | 40.51220 | -74.22745 | 9991 ft | 311 kts | 69° |
| 2026-05-04 20:17 | 40.51933 | -74.20074 | 9991 ft | 311 kts | 69° |
| 2026-05-04 20:18 | 40.52638 | -74.17426 | 9990 ft | 311 kts | 69° |
| 2026-05-04 20:18 | 40.53351 | -74.14739 | 9991 ft | 311 kts | 69° |
| 2026-05-04 20:18 | 40.54063 | -74.12059 | 9993 ft | 311 kts | 69° |
| 2026-05-04 20:18 | 40.54853 | -74.09414 | 9994 ft | 310 kts | 61° |
| 2026-05-04 20:19 | 40.55973 | -74.07016 | 9998 ft | 308 kts | 50° |
| 2026-05-04 20:19 | 40.57408 | -74.04943 | 10012 ft | 305 kts | 38° |
| 2026-05-04 20:19 | 40.59106 | -74.03260 | 10010 ft | 302 kts | 28° |
| 2026-05-04 20:19 | 40.60864 | -74.01787 | 10009 ft | 302 kts | 29° |
| 2026-05-04 20:20 | 40.62648 | -74.00298 | 10008 ft | 301 kts | 26° |
| 2026-05-04 20:20 | 40.64523 | -73.99143 | 10008 ft | 298 kts | 18° |
| 2026-05-04 20:20 | 40.66430 | -73.98088 | 10012 ft | 298 kts | 18° |
| 2026-05-04 20:20 | 40.68347 | -73.97021 | 10008 ft | 297 kts | 18° |
| 2026-05-04 20:21 | 40.70225 | -73.95973 | 10008 ft | 298 kts | 18° |
| 2026-05-04 20:21 | 40.72134 | -73.94910 | 10008 ft | 297 kts | 18° |
| 2026-05-04 20:21 | 40.75960 | -73.92790 | 9988 ft | 297 kts | 18° |
| 2026-05-04 20:22 | 40.77828 | -73.91755 | 9729 ft | 295 kts | 18° |
| 2026-05-04 20:22 | 40.79710 | -73.90709 | 9275 ft | 292 kts | 18° |
| 2026-05-04 20:22 | 40.81577 | -73.89669 | 8640 ft | 291 kts | 18° |
| 2026-05-04 20:22 | 40.83438 | -73.88630 | 8037 ft | 289 kts | 19° |
| 2026-05-04 20:23 | 40.85285 | -73.87598 | 7461 ft | 287 kts | 19° |
| 2026-05-04 20:23 | 40.87093 | -73.86587 | 7212 ft | 273 kts | 19° |
| 2026-05-04 20:23 | 40.88788 | -73.85637 | 7083 ft | 257 kts | 19° |
| 2026-05-04 20:23 | 40.90307 | -73.84507 | 6836 ft | 250 kts | 41° |
| 2026-05-04 20:24 | 40.91234 | -73.82595 | 6452 ft | 249 kts | 75° |
| 2026-05-04 20:24 | 40.91295 | -73.80356 | 5974 ft | 243 kts | 109° |
| 2026-05-04 20:24 | 40.90536 | -73.78435 | 5529 ft | 233 kts | 137° |
| 2026-05-04 20:24 | 40.89431 | -73.76874 | 5054 ft | 231 kts | 144° |
| 2026-05-04 20:25 | 40.88064 | -73.76029 | 4609 ft | 211 kts | 185° |
| 2026-05-04 20:25 | 40.86750 | -73.76603 | 4119 ft | 198 kts | 223° |
| 2026-05-04 20:25 | 40.85722 | -73.77827 | 3588 ft | 200 kts | 225° |
| 2026-05-04 20:25 | 40.84733 | -73.79029 | 3470 ft | 185 kts | 225° |
| 2026-05-04 20:26 | 40.83840 | -73.80115 | 3365 ft | 162 kts | 226° |
| 2026-05-04 20:26 | 40.83092 | -73.81077 | 3187 ft | 141 kts | 227° |
| 2026-05-04 20:26 | 40.82434 | -73.81946 | 2907 ft | 136 kts | 227° |
| 2026-05-04 20:26 | 40.81792 | -73.82845 | 2449 ft | 137 kts | 232° |
| 2026-05-04 20:27 | 40.81146 | -73.84018 | 1196 ft | 176 kts | 231° |
| 2026-05-04 20:27 | 40.80271 | -73.85193 | 537 ft | 171 kts | 223° |
| 2026-05-04 20:27 | 40.79427 | -73.86142 | 194 ft | 149 kts | 222° |
| 2026-05-04 20:27 | 40.78641 | -73.86977 | 64 ft | 141 kts | 216° |
| 2026-05-04 20:28 | 40.77874 | -73.87628 | 21 ft | 116 kts | 210° |
| 2026-05-04 20:28 | 40.77292 | -73.88100 | 24 ft | 79 kts | 212° |
| 2026-05-04 20:28 | 40.77004 | -73.88337 | 29 ft | 34 kts | 211° |
| 2026-05-04 20:28 | 40.76928 | -73.88313 | 29 ft | 11 kts | 89° |
| 2026-05-04 20:29 | 40.76988 | -73.88229 | 26 ft | 20 kts | 47° |
| 2026-05-04 20:29 | 40.77116 | -73.88090 | 22 ft | 26 kts | 31° |
| 2026-05-04 20:29 | 40.77272 | -73.87968 | 21 ft | 29 kts | 32° |
| 2026-05-04 20:29 | 40.77450 | -73.87822 | 21 ft | 31 kts | 31° |
| 2026-05-04 20:30 | 40.77540 | -73.87716 | 20 ft | 14 kts | 92° |
| 2026-05-04 20:30 | 40.77511 | -73.87585 | 20 ft | 16 kts | 69° |